Mason Township, Maine
Current Conditions -  °F | °C
As of 10:52 PM on Tuesday 21 Oct 2014 (Local Time) from KBML Reporting Station
Light Rain Light Rain  
Wind Chill: 39°   Ceiling: 1700
Heat Index: 44°   Visibility: 9mi
Dew Point: 43°   Wind: 9mph
Humidity: 96%   Direction: 340°NNW
Pressure: 30.12"   Gusts: NA
Location:  44.3718°N, 70.8421°W
Report Text: KBML 220252Z AUTO 34008KT 9SM -RA OVC017 07/06 A3012 RMK AO2 SLP207 P0002 60003 T00670061 51015
Loading
Personal Weather Stations






























Interactive Weather Map
Tropical Storm Tracking
New forecast layout! Learn more

10-Day Weather Forecast

Advertisements
Track Severe Weather on mobile